Ambierville, New York
Current Conditions -  °F | °C
As of 5:08 PM on Monday 26 Jan 2015 (Local Time) from KBGM Reporting Station
Light Snow Light Snow  
Wind Chill: -15°   Ceiling: 6000
Heat Index: -9°   Visibility: 5mi
Dew Point: -11°   Wind: 8mph
Humidity: 88%   Direction: 50°NE
Pressure: 29.8"   Gusts: NA
Location:  42.5358°N, 75.3475°W
Report Text: KBGM 262208Z 05007KT 5SM -SN BR FEW036 OVC060 M09/M11 A2980 RMK AO2 P0000 T10891106
Loading
Personal Weather Stations






























Interactive Weather Map New forecast layout! Learn more

10-Day Weather Forecast

Advertisements
Track Severe Weather on mobile